sensor_id;sensor_type;location;lat;lon;timestamp;pressure;altitude;pressure_sealevel;temperature;humidity
54270;BME280;40181;51.560;13.000;2023-03-20T00:02:30;100740.00;;;10.14;96.31
54270;BME280;40181;51.560;13.000;2023-03-20T00:05:00;100737.22;;;10.05;96.23
54270;BME280;40181;51.560;13.000;2023-03-20T00:07:29;100741.19;;;10.33;95.19
54270;BME280;40181;51.560;13.000;2023-03-20T00:09:58;100730.69;;;10.32;95.01
54270;BME280;40181;51.560;13.000;2023-03-20T00:12:27;100727.22;;;10.34;94.81
54270;BME280;40181;51.560;13.000;2023-03-20T00:14:58;100738.22;;;10.12;95.38
54270;BME280;40181;51.560;13.000;2023-03-20T00:17:31;100736.19;;;9.96;96.57
54270;BME280;40181;51.560;13.000;2023-03-20T00:20:00;100731.31;;;10.18;95.30
54270;BME280;40181;51.560;13.000;2023-03-20T00:22:29;100737.78;;;10.39;93.73
54270;BME280;40181;51.560;13.000;2023-03-20T00:24:58;100735.16;;;10.37;93.91
54270;BME280;40181;51.560;13.000;2023-03-20T00:27:28;100723.16;;;10.52;92.48
54270;BME280;40181;51.560;13.000;2023-03-20T00:29:57;100727.66;;;10.59;91.61
54270;BME280;40181;51.560;13.000;2023-03-20T00:32:26;100736.38;;;10.57;91.48
54270;BME280;40181;51.560;13.000;2023-03-20T00:34:58;100730.16;;;10.51;91.99
54270;BME280;40181;51.560;13.000;2023-03-20T00:37:27;100722.00;;;10.36;93.35
54270;BME280;40181;51.560;13.000;2023-03-20T00:39:56;100739.84;;;10.05;93.86
54270;BME280;40181;51.560;13.000;2023-03-20T00:42:25;100734.38;;;9.94;95.11
54270;BME280;40181;51.560;13.000;2023-03-20T00:44:55;100727.16;;;9.82;95.47
54270;BME280;40181;51.560;13.000;2023-03-20T00:47:27;100720.16;;;9.81;95.83
54270;BME280;40181;51.560;13.000;2023-03-20T00:49:59;100722.00;;;9.87;96.16
54270;BME280;40181;51.560;13.000;2023-03-20T00:52:28;100716.78;;;9.90;95.05
54270;BME280;40181;51.560;13.000;2023-03-20T00:54:57;100722.53;;;9.70;96.34
54270;BME280;40181;51.560;13.000;2023-03-20T00:57:29;100730.59;;;9.79;95.94
54270;BME280;40181;51.560;13.000;2023-03-20T01:00:07;100724.44;;;9.77;95.77
54270;BME280;40181;51.560;13.000;2023-03-20T01:02:44;100720.44;;;9.96;95.22
54270;BME280;40181;51.560;13.000;2023-03-20T01:05:16;100727.81;;;10.19;93.14
54270;BME280;40181;51.560;13.000;2023-03-20T01:07:45;100723.22;;;10.06;93.58
54270;BME280;40181;51.560;13.000;2023-03-20T01:10:15;100710.44;;;10.24;92.36
54270;BME280;40181;51.560;13.000;2023-03-20T01:12:45;100716.78;;;9.88;94.25
54270;BME280;40181;51.560;13.000;2023-03-20T01:15:19;100721.56;;;10.09;93.19
54270;BME280;40181;51.560;13.000;2023-03-20T01:17:50;100724.06;;;10.03;93.36
54270;BME280;40181;51.560;13.000;2023-03-20T01:20:24;100730.16;;;10.04;93.24
54270;BME280;40181;51.560;13.000;2023-03-20T01:22:55;100725.94;;;10.10;92.48
54270;BME280;40181;51.560;13.000;2023-03-20T01:25:25;100722.13;;;9.94;93.79
54270;BME280;40181;51.560;13.000;2023-03-20T01:27:54;100729.47;;;10.13;92.72
54270;BME280;40181;51.560;13.000;2023-03-20T01:30:26;100736.59;;;10.21;91.64
54270;BME280;40181;51.560;13.000;2023-03-20T01:32:57;100734.75;;;10.16;92.34
54270;BME280;40181;51.560;13.000;2023-03-20T01:35:29;100730.91;;;9.95;93.37
54270;BME280;40181;51.560;13.000;2023-03-20T01:37:58;100732.78;;;10.02;92.70
54270;BME280;40181;51.560;13.000;2023-03-20T01:40:32;100739.00;;;10.07;92.28
54270;BME280;40181;51.560;13.000;2023-03-20T01:43:13;100729.69;;;10.25;91.21
54270;BME280;40181;51.560;13.000;2023-03-20T01:45:52;100740.19;;;10.23;91.65
54270;BME280;40181;51.560;13.000;2023-03-20T01:48:35;100737.91;;;9.96;93.34
54270;BME280;40181;51.560;13.000;2023-03-20T01:51:28;100726.47;;;9.92;93.46
54270;BME280;40181;51.560;13.000;2023-03-20T01:54:04;100741.34;;;9.92;93.27
54270;BME280;40181;51.560;13.000;2023-03-20T01:56:37;100733.53;;;9.95;93.10
54270;BME280;40181;51.560;13.000;2023-03-20T01:59:11;100730.38;;;9.67;94.45
54270;BME280;40181;51.560;13.000;2023-03-20T02:01:43;100740.38;;;9.87;93.20
54270;BME280;40181;51.560;13.000;2023-03-20T02:04:13;100736.28;;;10.03;92.38
54270;BME280;40181;51.560;13.000;2023-03-20T02:06:46;100731.03;;;10.03;91.72
54270;BME280;40181;51.560;13.000;2023-03-20T02:09:16;100732.84;;;10.05;91.88
54270;BME280;40181;51.560;13.000;2023-03-20T02:11:46;100737.88;;;9.94;92.30
54270;BME280;40181;51.560;13.000;2023-03-20T02:14:16;100733.66;;;10.01;92.24
54270;BME280;40181;51.560;13.000;2023-03-20T02:16:46;100730.91;;;9.50;95.62
54270;BME280;40181;51.560;13.000;2023-03-20T02:19:22;100736.31;;;9.58;95.73
54270;BME280;40181;51.560;13.000;2023-03-20T02:22:23;100730.22;;;9.59;95.03
54270;BME280;40181;51.560;13.000;2023-03-20T02:29:05;100727.34;;;9.47;95.97
54270;BME280;40181;51.560;13.000;2023-03-20T02:32:05;100722.31;;;9.58;95.02
54270;BME280;40181;51.560;13.000;2023-03-20T02:38:17;100723.63;;;9.35;96.85
54270;BME280;40181;51.560;13.000;2023-03-20T02:41:14;100716.38;;;9.23;97.63
54270;BME280;40181;51.560;13.000;2023-03-20T02:43:56;100726.78;;;9.20;97.73
54270;BME280;40181;51.560;13.000;2023-03-20T02:46:35;100726.38;;;9.02;98.07
54270;BME280;40181;51.560;13.000;2023-03-20T02:49:20;100717.06;;;8.76;99.73
54270;BME280;40181;51.560;13.000;2023-03-20T02:52:02;100722.63;;;8.90;99.65
54270;BME280;40181;51.560;13.000;2023-03-20T02:54:38;100718.66;;;9.08;97.91
54270;BME280;40181;51.560;13.000;2023-03-20T02:57:15;100727.44;;;9.10;97.96
54270;BME280;40181;51.560;13.000;2023-03-20T02:59:54;100732.22;;;8.90;98.77
54270;BME280;40181;51.560;13.000;2023-03-20T03:02:30;100738.56;;;8.99;98.62
54270;BME280;40181;51.560;13.000;2023-03-20T03:05:07;100733.66;;;9.15;97.15
54270;BME280;40181;51.560;13.000;2023-03-20T03:07:42;100741.00;;;8.92;97.20
54270;BME280;40181;51.560;13.000;2023-03-20T03:10:21;100737.44;;;8.88;99.11
54270;BME280;40181;51.560;13.000;2023-03-20T03:12:55;100750.09;;;8.69;99.72
54270;BME280;40181;51.560;13.000;2023-03-20T03:15:32;100733.19;;;8.56;100.00
54270;BME280;40181;51.560;13.000;2023-03-20T03:18:05;100732.94;;;8.47;100.00
54270;BME280;40181;51.560;13.000;2023-03-20T03:20:38;100737.78;;;8.65;100.00
54270;BME280;40181;51.560;13.000;2023-03-20T03:23:17;100732.66;;;8.71;100.00
54270;BME280;40181;51.560;13.000;2023-03-20T03:25:51;100728.13;;;8.63;100.00
54270;BME280;40181;51.560;13.000;2023-03-20T03:28:28;100738.88;;;8.75;99.88
54270;BME280;40181;51.560;13.000;2023-03-20T03:31:02;100735.75;;;8.55;100.00
54270;BME280;40181;51.560;13.000;2023-03-20T03:33:37;100728.75;;;8.54;100.00
54270;BME280;40181;51.560;13.000;2023-03-20T03:36:12;100721.59;;;8.83;99.45
54270;BME280;40181;51.560;13.000;2023-03-20T03:38:53;100725.78;;;8.75;99.75
54270;BME280;40181;51.560;13.000;2023-03-20T03:41:30;100724.00;;;8.74;99.71
54270;BME280;40181;51.560;13.000;2023-03-20T03:44:09;100724.41;;;8.54;100.00
54270;BME280;40181;51.560;13.000;2023-03-20T03:46:43;100723.09;;;8.72;99.79
54270;BME280;40181;51.560;13.000;2023-03-20T03:49:19;100722.81;;;8.61;100.00
54270;BME280;40181;51.560;13.000;2023-03-20T03:51:54;100733.78;;;8.81;99.24
54270;BME280;40181;51.560;13.000;2023-03-20T03:54:29;100730.25;;;8.44;100.00
54270;BME280;40181;51.560;13.000;2023-03-20T03:57:04;100729.72;;;8.57;100.00
54270;BME280;40181;51.560;13.000;2023-03-20T03:59:37;100731.09;;;8.43;100.00
54270;BME280;40181;51.560;13.000;2023-03-20T04:02:08;100751.22;;;8.45;100.00
54270;BME280;40181;51.560;13.000;2023-03-20T04:04:41;100745.03;;;8.42;100.00
54270;BME280;40181;51.560;13.000;2023-03-20T04:07:14;100741.81;;;8.19;100.00
54270;BME280;40181;51.560;13.000;2023-03-20T04:09:43;100740.72;;;8.10;100.00
54270;BME280;40181;51.560;13.000;2023-03-20T04:12:37;100751.63;;;7.94;100.00
54270;BME280;40181;51.560;13.000;2023-03-20T04:15:08;100755.41;;;8.05;100.00
54270;BME280;40181;51.560;13.000;2023-03-20T04:17:37;100753.97;;;8.16;100.00
54270;BME280;40181;51.560;13.000;2023-03-20T04:20:08;100757.63;;;8.23;100.00
54270;BME280;40181;51.560;13.000;2023-03-20T04:22:39;100755.72;;;8.17;100.00
54270;BME280;40181;51.560;13.000;2023-03-20T04:25:13;100765.34;;;8.19;100.00
54270;BME280;40181;51.560;13.000;2023-03-20T04:27:46;100761.13;;;8.24;100.00
54270;BME280;40181;51.560;13.000;2023-03-20T04:30:16;100758.94;;;8.41;100.00
54270;BME280;40181;51.560;13.000;2023-03-20T04:32:46;100754.94;;;8.20;100.00
54270;BME280;40181;51.560;13.000;2023-03-20T04:35:15;100763.59;;;8.17;100.00
54270;BME280;40181;51.560;13.000;2023-03-20T04:37:44;100768.25;;;8.29;100.00
54270;BME280;40181;51.560;13.000;2023-03-20T04:40:14;100763.09;;;8.33;100.00
54270;BME280;40181;51.560;13.000;2023-03-20T04:42:46;100768.34;;;8.33;100.00
54270;BME280;40181;51.560;13.000;2023-03-20T04:45:15;100765.84;;;8.37;100.00
54270;BME280;40181;51.560;13.000;2023-03-20T04:47:44;100773.00;;;8.43;100.00
54270;BME280;40181;51.560;13.000;2023-03-20T04:50:14;100776.75;;;8.53;100.00
54270;BME280;40181;51.560;13.000;2023-03-20T04:52:43;100786.53;;;8.28;100.00
54270;BME280;40181;51.560;13.000;2023-03-20T04:55:12;100780.97;;;8.49;100.00
54270;BME280;40181;51.560;13.000;2023-03-20T04:57:41;100788.97;;;8.52;100.00
54270;BME280;40181;51.560;13.000;2023-03-20T05:00:14;100789.22;;;8.29;100.00
54270;BME280;40181;51.560;13.000;2023-03-20T05:02:47;100774.06;;;8.17;100.00
54270;BME280;40181;51.560;13.000;2023-03-20T05:05:16;100794.25;;;8.23;100.00
54270;BME280;40181;51.560;13.000;2023-03-20T05:07:45;100780.88;;;8.11;100.00
54270;BME280;40181;51.560;13.000;2023-03-20T05:10:16;100782.50;;;8.41;100.00
54270;BME280;40181;51.560;13.000;2023-03-20T05:12:46;100779.19;;;8.47;100.00
54270;BME280;40181;51.560;13.000;2023-03-20T05:15:18;100776.47;;;8.42;100.00
54270;BME280;40181;51.560;13.000;2023-03-20T05:17:47;100781.06;;;8.19;100.00
54270;BME280;40181;51.560;13.000;2023-03-20T05:20:17;100779.34;;;8.19;100.00
54270;BME280;40181;51.560;13.000;2023-03-20T05:22:47;100794.63;;;8.36;100.00
54270;BME280;40181;51.560;13.000;2023-03-20T05:25:17;100780.78;;;8.08;100.00
54270;BME280;40181;51.560;13.000;2023-03-20T05:27:49;100782.31;;;8.33;100.00
54270;BME280;40181;51.560;13.000;2023-03-20T05:30:21;100791.19;;;8.38;100.00
54270;BME280;40181;51.560;13.000;2023-03-20T05:32:50;100783.59;;;8.49;100.00
54270;BME280;40181;51.560;13.000;2023-03-20T05:35:20;100787.13;;;8.50;100.00
54270;BME280;40181;51.560;13.000;2023-03-20T05:37:49;100796.78;;;8.51;100.00
54270;BME280;40181;51.560;13.000;2023-03-20T05:40:19;100794.19;;;8.20;100.00
54270;BME280;40181;51.560;13.000;2023-03-20T05:42:49;100799.06;;;8.38;100.00
54270;BME280;40181;51.560;13.000;2023-03-20T05:45:21;100792.47;;;8.21;100.00
54270;BME280;40181;51.560;13.000;2023-03-20T05:47:50;100796.94;;;8.25;100.00
54270;BME280;40181;51.560;13.000;2023-03-20T05:50:19;100805.38;;;8.48;100.00
54270;BME280;40181;51.560;13.000;2023-03-20T05:52:48;100805.03;;;8.34;100.00
54270;BME280;40181;51.560;13.000;2023-03-20T05:55:25;100805.38;;;8.47;100.00
54270;BME280;40181;51.560;13.000;2023-03-20T05:57:54;100815.84;;;8.14;100.00
54270;BME280;40181;51.560;13.000;2023-03-20T06:00:26;100812.97;;;8.05;100.00
54270;BME280;40181;51.560;13.000;2023-03-20T06:02:55;100816.59;;;8.10;100.00
54270;BME280;40181;51.560;13.000;2023-03-20T06:05:26;100812.84;;;8.00;100.00
54270;BME280;40181;51.560;13.000;2023-03-20T06:07:55;100806.97;;;8.41;100.00
54270;BME280;40181;51.560;13.000;2023-03-20T06:10:24;100818.22;;;8.05;100.00
54270;BME280;40181;51.560;13.000;2023-03-20T06:12:54;100820.66;;;8.31;100.00
54270;BME280;40181;51.560;13.000;2023-03-20T06:15:27;100814.88;;;8.43;100.00
54270;BME280;40181;51.560;13.000;2023-03-20T06:17:56;100821.03;;;8.45;100.00
54270;BME280;40181;51.560;13.000;2023-03-20T06:20:26;100816.19;;;8.27;100.00
54270;BME280;40181;51.560;13.000;2023-03-20T06:22:55;100818.06;;;8.33;100.00
54270;BME280;40181;51.560;13.000;2023-03-20T06:25:24;100823.44;;;8.37;100.00
54270;BME280;40181;51.560;13.000;2023-03-20T06:27:54;100817.25;;;8.34;100.00
54270;BME280;40181;51.560;13.000;2023-03-20T06:30:23;100829.09;;;8.51;100.00
54270;BME280;40181;51.560;13.000;2023-03-20T06:32:55;100837.81;;;8.52;100.00
54270;BME280;40181;51.560;13.000;2023-03-20T06:35:29;100838.19;;;8.34;100.00
54270;BME280;40181;51.560;13.000;2023-03-20T06:37:59;100833.50;;;8.22;100.00
54270;BME280;40181;51.560;13.000;2023-03-20T06:40:30;100830.97;;;8.25;100.00
54270;BME280;40181;51.560;13.000;2023-03-20T06:43:00;100836.25;;;8.26;100.00
54270;BME280;40181;51.560;13.000;2023-03-20T06:45:32;100830.16;;;8.27;100.00
54270;BME280;40181;51.560;13.000;2023-03-20T06:48:01;100835.78;;;8.41;100.00
54270;BME280;40181;51.560;13.000;2023-03-20T06:50:33;100847.09;;;8.40;100.00
54270;BME280;40181;51.560;13.000;2023-03-20T06:53:03;100838.06;;;8.29;100.00
54270;BME280;40181;51.560;13.000;2023-03-20T06:55:32;100840.56;;;8.56;100.00
54270;BME280;40181;51.560;13.000;2023-03-20T06:58:01;100840.94;;;8.40;100.00
54270;BME280;40181;51.560;13.000;2023-03-20T07:00:33;100850.19;;;8.27;100.00
54270;BME280;40181;51.560;13.000;2023-03-20T07:03:04;100847.16;;;8.42;100.00
54270;BME280;40181;51.560;13.000;2023-03-20T07:05:33;100845.56;;;8.49;100.00
54270;BME280;40181;51.560;13.000;2023-03-20T07:08:03;100850.09;;;8.54;100.00
54270;BME280;40181;51.560;13.000;2023-03-20T07:10:33;100852.16;;;8.66;100.00
54270;BME280;40181;51.560;13.000;2023-03-20T07:13:03;100863.25;;;8.91;100.00
54270;BME280;40181;51.560;13.000;2023-03-20T07:15:34;100863.75;;;8.76;100.00
54270;BME280;40181;51.560;13.000;2023-03-20T07:18:03;100860.28;;;8.77;100.00
54270;BME280;40181;51.560;13.000;2023-03-20T07:20:32;100864.78;;;8.81;100.00
54270;BME280;40181;51.560;13.000;2023-03-20T07:23:02;100867.31;;;8.78;100.00
54270;BME280;40181;51.560;13.000;2023-03-20T07:25:31;100859.81;;;8.94;100.00
54270;BME280;40181;51.560;13.000;2023-03-20T07:28:00;100863.31;;;8.93;100.00
54270;BME280;40181;51.560;13.000;2023-03-20T07:30:30;100876.22;;;8.86;100.00
54270;BME280;40181;51.560;13.000;2023-03-20T07:33:02;100868.81;;;9.04;100.00
54270;BME280;40181;51.560;13.000;2023-03-20T07:35:32;100869.09;;;9.16;100.00
54270;BME280;40181;51.560;13.000;2023-03-20T07:38:01;100875.19;;;9.15;100.00
54270;BME280;40181;51.560;13.000;2023-03-20T07:40:30;100878.56;;;9.09;100.00
54270;BME280;40181;51.560;13.000;2023-03-20T07:43:00;100877.66;;;9.09;100.00
54270;BME280;40181;51.560;13.000;2023-03-20T07:45:29;100873.38;;;9.11;100.00
54270;BME280;40181;51.560;13.000;2023-03-20T07:48:01;100873.53;;;9.19;100.00
54270;BME280;40181;51.560;13.000;2023-03-20T07:50:30;100881.59;;;9.26;100.00
54270;BME280;40181;51.560;13.000;2023-03-20T07:52:59;100878.16;;;9.29;100.00
54270;BME280;40181;51.560;13.000;2023-03-20T07:55:28;100881.78;;;9.34;100.00
54270;BME280;40181;51.560;13.000;2023-03-20T07:57:57;100873.97;;;9.37;100.00
54270;BME280;40181;51.560;13.000;2023-03-20T08:00:27;100879.69;;;9.21;100.00
54270;BME280;40181;51.560;13.000;2023-03-20T08:02:56;100879.84;;;9.27;100.00
54270;BME280;40181;51.560;13.000;2023-03-20T08:05:28;100880.66;;;9.24;100.00
54270;BME280;40181;51.560;13.000;2023-03-20T08:07:59;100885.09;;;9.27;100.00
54270;BME280;40181;51.560;13.000;2023-03-20T08:10:29;100897.09;;;9.17;100.00
54270;BME280;40181;51.560;13.000;2023-03-20T08:13:00;100885.91;;;9.24;100.00
54270;BME280;40181;51.560;13.000;2023-03-20T08:15:29;100878.97;;;9.26;100.00
54270;BME280;40181;51.560;13.000;2023-03-20T08:17:58;100882.53;;;9.29;100.00
54270;BME280;40181;51.560;13.000;2023-03-20T08:20:30;100887.94;;;9.36;100.00
54270;BME280;40181;51.560;13.000;2023-03-20T08:22:59;100889.72;;;9.37;100.00
54270;BME280;40181;51.560;13.000;2023-03-20T08:25:28;100881.91;;;9.40;100.00
54270;BME280;40181;51.560;13.000;2023-03-20T08:27:58;100887.19;;;9.42;100.00
54270;BME280;40181;51.560;13.000;2023-03-20T08:30:28;100882.44;;;9.25;100.00
54270;BME280;40181;51.560;13.000;2023-03-20T08:32:58;100877.78;;;9.50;100.00
54270;BME280;40181;51.560;13.000;2023-03-20T08:35:29;100882.13;;;9.50;100.00
54270;BME280;40181;51.560;13.000;2023-03-20T08:37:59;100888.00;;;9.38;100.00
54270;BME280;40181;51.560;13.000;2023-03-20T08:40:29;100887.19;;;9.42;100.00
54270;BME280;40181;51.560;13.000;2023-03-20T08:42:58;100901.75;;;9.29;100.00
54270;BME280;40181;51.560;13.000;2023-03-20T08:45:29;100903.00;;;9.45;100.00
54270;BME280;40181;51.560;13.000;2023-03-20T08:47:58;100904.00;;;9.50;100.00
54270;BME280;40181;51.560;13.000;2023-03-20T08:50:30;100905.88;;;9.54;100.00
54270;BME280;40181;51.560;13.000;2023-03-20T08:52:59;100912.13;;;9.61;100.00
54270;BME280;40181;51.560;13.000;2023-03-20T08:55:29;100919.00;;;9.56;100.00
54270;BME280;40181;51.560;13.000;2023-03-20T08:57:58;100923.38;;;9.55;100.00
54270;BME280;40181;51.560;13.000;2023-03-20T09:00:27;100927.22;;;9.72;100.00
54270;BME280;40181;51.560;13.000;2023-03-20T09:02:57;100927.56;;;9.49;100.00
54270;BME280;40181;51.560;13.000;2023-03-20T09:05:30;100916.38;;;9.56;100.00
54270;BME280;40181;51.560;13.000;2023-03-20T09:07:59;100927.50;;;9.46;100.00
54270;BME280;40181;51.560;13.000;2023-03-20T09:10:28;100925.41;;;9.69;100.00
54270;BME280;40181;51.560;13.000;2023-03-20T09:13:00;100920.81;;;9.59;100.00
54270;BME280;40181;51.560;13.000;2023-03-20T09:15:30;100924.59;;;9.72;100.00
54270;BME280;40181;51.560;13.000;2023-03-20T09:17:59;100924.81;;;9.81;100.00
54270;BME280;40181;51.560;13.000;2023-03-20T09:20:31;100924.66;;;9.73;100.00
54270;BME280;40181;51.560;13.000;2023-03-20T09:23:00;100922.84;;;9.71;100.00
54270;BME280;40181;51.560;13.000;2023-03-20T09:25:29;100935.19;;;9.76;100.00
54270;BME280;40181;51.560;13.000;2023-03-20T09:27:58;100934.59;;;9.88;100.00
54270;BME280;40181;51.560;13.000;2023-03-20T09:30:27;100943.31;;;9.87;100.00
54270;BME280;40181;51.560;13.000;2023-03-20T09:32:57;100932.22;;;9.61;100.00
54270;BME280;40181;51.560;13.000;2023-03-20T09:35:26;100943.84;;;9.72;100.00
54270;BME280;40181;51.560;13.000;2023-03-20T09:37:58;100939.53;;;9.74;100.00
54270;BME280;40181;51.560;13.000;2023-03-20T09:40:30;100930.81;;;9.75;100.00
54270;BME280;40181;51.560;13.000;2023-03-20T09:43:09;100945.00;;;9.83;100.00
54270;BME280;40181;51.560;13.000;2023-03-20T09:45:49;100942.75;;;9.62;100.00
54270;BME280;40181;51.560;13.000;2023-03-20T09:48:33;100939.75;;;9.85;100.00
54270;BME280;40181;51.560;13.000;2023-03-20T09:51:12;100945.03;;;9.87;100.00
54270;BME280;40181;51.560;13.000;2023-03-20T09:53:52;100946.16;;;9.96;100.00
54270;BME280;40181;51.560;13.000;2023-03-20T09:56:25;100947.81;;;9.93;100.00
54270;BME280;40181;51.560;13.000;2023-03-20T09:58:57;100951.50;;;10.03;100.00
54270;BME280;40181;51.560;13.000;2023-03-20T10:01:32;100944.44;;;9.99;100.00
54270;BME280;40181;51.560;13.000;2023-03-20T10:04:06;100964.59;;;10.00;100.00
54270;BME280;40181;51.560;13.000;2023-03-20T10:06:37;100961.78;;;9.92;100.00
54270;BME280;40181;51.560;13.000;2023-03-20T10:09:14;100952.81;;;9.82;100.00
54270;BME280;40181;51.560;13.000;2023-03-20T10:11:56;100965.75;;;10.13;100.00
54270;BME280;40181;51.560;13.000;2023-03-20T10:14:50;100961.25;;;10.07;100.00
54270;BME280;40181;51.560;13.000;2023-03-20T10:17:39;100952.41;;;10.03;100.00
54270;BME280;40181;51.560;13.000;2023-03-20T10:20:25;100963.94;;;10.10;100.00
54270;BME280;40181;51.560;13.000;2023-03-20T10:23:04;100965.53;;;10.03;100.00
54270;BME280;40181;51.560;13.000;2023-03-20T10:25:41;100965.94;;;10.22;100.00
54270;BME280;40181;51.560;13.000;2023-03-20T10:28:16;100955.47;;;10.23;100.00
54270;BME280;40181;51.560;13.000;2023-03-20T10:30:56;100960.19;;;9.99;100.00
54270;BME280;40181;51.560;13.000;2023-03-20T10:33:39;100960.53;;;10.16;100.00
54270;BME280;40181;51.560;13.000;2023-03-20T10:36:28;100959.78;;;10.20;100.00
54270;BME280;40181;51.560;13.000;2023-03-20T10:39:13;100948.47;;;10.22;100.00
54270;BME280;40181;51.560;13.000;2023-03-20T10:41:52;100934.75;;;10.39;100.00
54270;BME280;40181;51.560;13.000;2023-03-20T10:44:30;100943.09;;;10.18;100.00
54270;BME280;40181;51.560;13.000;2023-03-20T10:47:02;100945.22;;;10.36;100.00
54270;BME280;40181;51.560;13.000;2023-03-20T10:49:38;100942.59;;;10.36;100.00
54270;BME280;40181;51.560;13.000;2023-03-20T10:52:12;100949.22;;;10.18;100.00
54270;BME280;40181;51.560;13.000;2023-03-20T10:54:46;100945.16;;;10.33;100.00
54270;BME280;40181;51.560;13.000;2023-03-20T10:57:22;100953.81;;;10.27;99.71
54270;BME280;40181;51.560;13.000;2023-03-20T10:59:55;100950.22;;;10.23;100.00
54270;BME280;40181;51.560;13.000;2023-03-20T11:02:27;100952.94;;;10.28;100.00
54270;BME280;40181;51.560;13.000;2023-03-20T11:04:58;100937.38;;;10.37;99.98
54270;BME280;40181;51.560;13.000;2023-03-20T11:07:32;100940.72;;;10.30;99.78
54270;BME280;40181;51.560;13.000;2023-03-20T11:10:10;100936.19;;;10.23;100.00
54270;BME280;40181;51.560;13.000;2023-03-20T11:12:45;100949.63;;;10.37;99.99
54270;BME280;40181;51.560;13.000;2023-03-20T11:15:22;100943.22;;;10.24;100.00
54270;BME280;40181;51.560;13.000;2023-03-20T11:17:55;100936.91;;;10.16;100.00
54270;BME280;40181;51.560;13.000;2023-03-20T11:20:31;100935.22;;;10.18;100.00
54270;BME280;40181;51.560;13.000;2023-03-20T11:23:04;100931.91;;;10.27;100.00
54270;BME280;40181;51.560;13.000;2023-03-20T11:25:37;100927.44;;;10.22;100.00
54270;BME280;40181;51.560;13.000;2023-03-20T11:28:27;100926.00;;;10.38;100.00
54270;BME280;40181;51.560;13.000;2023-03-20T11:31:00;100919.91;;;10.40;100.00
54270;BME280;40181;51.560;13.000;2023-03-20T11:33:35;100932.78;;;10.27;100.00
54270;BME280;40181;51.560;13.000;2023-03-20T11:36:18;100928.47;;;10.29;100.00
54270;BME280;40181;51.560;13.000;2023-03-20T11:38:51;100931.41;;;10.43;100.00
54270;BME280;40181;51.560;13.000;2023-03-20T11:41:24;100926.75;;;10.31;100.00
54270;BME280;40181;51.560;13.000;2023-03-20T11:43:58;100926.28;;;10.51;99.75
54270;BME280;40181;51.560;13.000;2023-03-20T11:46:27;100929.81;;;10.51;99.41
54270;BME280;40181;51.560;13.000;2023-03-20T11:49:14;100913.09;;;10.48;99.49
54270;BME280;40181;51.560;13.000;2023-03-20T11:51:49;100933.03;;;10.40;99.62
54270;BME280;40181;51.560;13.000;2023-03-20T11:54:20;100921.66;;;10.41;99.61
54270;BME280;40181;51.560;13.000;2023-03-20T11:56:53;100925.63;;;10.20;100.00
54270;BME280;40181;51.560;13.000;2023-03-20T11:59:29;100922.53;;;10.40;99.97
54270;BME280;40181;51.560;13.000;2023-03-20T12:02:01;100911.31;;;10.47;100.00
54270;BME280;40181;51.560;13.000;2023-03-20T12:04:33;100919.00;;;10.39;100.00
54270;BME280;40181;51.560;13.000;2023-03-20T12:07:11;100916.69;;;10.53;100.00
54270;BME280;40181;51.560;13.000;2023-03-20T12:09:46;100915.13;;;10.63;100.00
54270;BME280;40181;51.560;13.000;2023-03-20T12:12:23;100914.72;;;10.43;100.00
54270;BME280;40181;51.560;13.000;2023-03-20T12:15:14;100906.13;;;10.50;100.00
54270;BME280;40181;51.560;13.000;2023-03-20T12:17:50;100900.00;;;10.49;100.00
54270;BME280;40181;51.560;13.000;2023-03-20T12:20:28;100908.75;;;10.50;100.00
54270;BME280;40181;51.560;13.000;2023-03-20T12:23:05;100904.81;;;10.31;100.00
54270;BME280;40181;51.560;13.000;2023-03-20T12:25:44;100899.59;;;10.31;100.00
54270;BME280;40181;51.560;13.000;2023-03-20T12:28:23;100897.91;;;10.33;100.00
54270;BME280;40181;51.560;13.000;2023-03-20T12:31:05;100892.22;;;10.54;100.00
54270;BME280;40181;51.560;13.000;2023-03-20T12:33:48;100892.84;;;10.42;100.00
54270;BME280;40181;51.560;13.000;2023-03-20T12:36:27;100901.13;;;10.19;100.00
54270;BME280;40181;51.560;13.000;2023-03-20T12:38:58;100896.38;;;10.03;100.00
54270;BME280;40181;51.560;13.000;2023-03-20T12:41:39;100890.03;;;10.34;100.00
54270;BME280;40181;51.560;13.000;2023-03-20T12:44:28;100890.66;;;10.21;100.00
54270;BME280;40181;51.560;13.000;2023-03-20T12:47:14;100899.59;;;10.31;100.00
54270;BME280;40181;51.560;13.000;2023-03-20T12:49:56;100883.78;;;10.28;100.00
54270;BME280;40181;51.560;13.000;2023-03-20T12:52:37;100885.66;;;10.35;100.00
54270;BME280;40181;51.560;13.000;2023-03-20T12:55:20;100881.00;;;10.21;100.00
54270;BME280;40181;51.560;13.000;2023-03-20T12:58:06;100880.88;;;10.14;100.00
54270;BME280;40181;51.560;13.000;2023-03-20T13:00:48;100889.75;;;10.20;100.00
54270;BME280;40181;51.560;13.000;2023-03-20T13:03:34;100891.38;;;10.14;100.00
54270;BME280;40181;51.560;13.000;2023-03-20T13:06:29;100889.63;;;9.73;100.00
54270;BME280;40181;51.560;13.000;2023-03-20T13:09:30;100888.28;;;9.90;100.00
54270;BME280;40181;51.560;13.000;2023-03-20T13:12:27;100881.25;;;9.89;100.00
54270;BME280;40181;51.560;13.000;2023-03-20T13:15:15;100881.22;;;9.88;100.00
54270;BME280;40181;51.560;13.000;2023-03-20T13:17:57;100874.38;;;9.96;100.00
54270;BME280;40181;51.560;13.000;2023-03-20T13:20:37;100870.81;;;9.91;100.00
54270;BME280;40181;51.560;13.000;2023-03-20T13:23:18;100875.91;;;9.85;100.00